Time;durP1;ratioP1;P1;durP2;ratioP2;P2;SDS_P1;SDS_P2;PMS_P1;PMS_P2;Temp;Humidity;BMP_temperature;BMP_pressure;BME280_temperature;BME280_humidity;BME280_pressure;Samples;Min_cycle;Max_cycle;Signal;HPM_P1;HPM_P2
2022/03/13 00:02:50;;;;;;;91.67;37.90;;;-1.20;62.40;;;;;;10265490;28;20085;-85
2022/03/13 00:07:54;;;;;;;93.57;37.40;;;-1.20;62.10;;;;;;10273547;28;20022;-85
2022/03/13 00:12:55;;;;;;;91.30;37.97;;;-1.30;64.00;;;;;;10290163;28;20047;-86
2022/03/13 00:17:57;;;;;;;91.90;35.93;;;-1.50;65.20;;;;;;10282779;28;20549;-85
2022/03/13 00:22:57;;;;;;;97.03;37.73;;;-1.60;66.10;;;;;;10281410;28;20022;-85
2022/03/13 00:27:58;;;;;;;99.27;38.47;;;-1.70;66.00;;;;;;10290089;28;20027;-85
2022/03/13 00:33:00;;;;;;;101.00;43.57;;;-1.80;67.30;;;;;;10282154;28;20039;-85
2022/03/13 00:38:01;;;;;;;113.70;42.60;;;-2.10;67.70;;;;;;10289569;28;20075;-85
2022/03/13 00:43:04;;;;;;;110.23;39.57;;;-2.10;67.60;;;;;;10289271;28;20105;-84
2022/03/13 00:48:04;;;;;;;106.43;41.10;;;-2.10;67.70;;;;;;10271639;28;20045;-84
2022/03/13 00:53:05;;;;;;;141.53;48.40;;;-2.20;68.00;;;;;;10270075;28;20049;-84
2022/03/13 00:58:06;;;;;;;128.83;49.80;;;-2.30;68.50;;;;;;10287911;28;20491;-84
2022/03/13 01:03:16;;;;;;;112.03;45.17;;;-2.30;68.70;;;;;;10281626;28;20467;-85
2022/03/13 01:08:17;;;;;;;136.33;54.10;;;-2.20;68.20;;;;;;10288272;28;20034;-84
2022/03/13 01:13:19;;;;;;;143.20;52.87;;;-2.20;67.80;;;;;;10288352;28;20058;-84
2022/03/13 01:18:20;;;;;;;151.70;56.33;;;-2.20;69.00;;;;;;10287701;28;20110;-85
2022/03/13 01:23:21;;;;;;;181.50;67.53;;;-2.30;69.30;;;;;;10288034;28;20027;-85
2022/03/13 01:28:21;;;;;;;221.03;86.63;;;-2.40;69.30;;;;;;10286894;28;20089;-85
2022/03/13 01:33:22;;;;;;;224.07;83.57;;;-2.40;69.10;;;;;;10268122;28;20134;-85
2022/03/13 01:38:31;;;;;;;142.77;53.40;;;-2.40;69.30;;;;;;10287233;28;20096;-85
2022/03/13 01:43:32;;;;;;;122.93;48.33;;;-2.50;68.80;;;;;;10281583;28;20042;-85
2022/03/13 01:48:50;;;;;;;113.00;44.10;;;-2.40;69.00;;;;;;10279481;28;20035;-85
2022/03/13 01:54:04;;;;;;;104.70;42.60;;;-2.50;69.20;;;;;;10286463;28;20046;-85
2022/03/13 01:59:06;;;;;;;112.13;43.70;;;-2.50;68.80;;;;;;10258875;28;20034;-85
2022/03/13 02:04:07;;;;;;;219.57;84.83;;;-2.50;68.80;;;;;;10286403;28;20061;-85
2022/03/13 02:09:09;;;;;;;103.83;42.47;;;-2.60;68.80;;;;;;10287162;28;20062;-85
2022/03/13 02:14:11;;;;;;;96.93;38.77;;;-2.60;68.00;;;;;;10277688;28;20109;-85
2022/03/13 02:19:12;;;;;;;101.90;40.63;;;-2.50;67.80;;;;;;10268303;28;20714;-85
2022/03/13 02:24:15;;;;;;;89.47;34.73;;;-2.40;68.00;;;;;;10285727;28;20082;-84
2022/03/13 02:29:15;;;;;;;93.57;36.13;;;-2.40;68.00;;;;;;10285249;28;20652;-85
2022/03/13 02:34:16;;;;;;;92.70;35.60;;;-2.40;67.80;;;;;;10284594;28;20057;-84
2022/03/13 02:39:18;;;;;;;93.73;37.87;;;-2.30;67.40;;;;;;10286231;28;20034;-85
2022/03/13 02:44:18;;;;;;;90.80;35.53;;;-2.20;67.50;;;;;;10253534;28;20672;-85
2022/03/13 02:49:21;;;;;;;91.83;36.00;;;-2.20;67.00;;;;;;10268900;28;20119;-85
2022/03/13 02:54:22;;;;;;;83.20;33.40;;;-2.10;67.40;;;;;;10262290;28;20040;-85
2022/03/13 02:59:23;;;;;;;79.27;32.70;;;-2.20;67.40;;;;;;10266719;28;20035;-85
2022/03/13 03:04:24;;;;;;;69.93;27.53;;;-2.10;67.10;;;;;;10231131;29;20063;-86
2022/03/13 03:09:25;;;;;;;69.10;27.37;;;-2.00;66.70;;;;;;10262212;28;20394;-87
2022/03/13 03:14:29;;;;;;;56.70;23.27;;;-1.90;66.20;;;;;;10285022;28;20138;-86
2022/03/13 03:19:30;;;;;;;61.83;24.10;;;-1.90;66.50;;;;;;10238901;28;20042;-87
2022/03/13 03:24:30;;;;;;;71.60;29.90;;;-1.80;65.70;;;;;;10290815;28;20058;-87
2022/03/13 03:29:31;;;;;;;76.37;31.53;;;-1.80;66.30;;;;;;10263127;28;20034;-85
2022/03/13 03:34:32;;;;;;;88.83;35.30;;;-1.90;66.70;;;;;;10263745;28;20105;-86
2022/03/13 03:39:33;;;;;;;84.10;34.57;;;-2.10;67.90;;;;;;10283326;28;20085;-87
2022/03/13 03:44:34;;;;;;;119.27;45.27;;;-2.20;69.90;;;;;;10273888;28;20030;-86
2022/03/13 03:49:34;;;;;;;113.97;44.53;;;-2.40;69.70;;;;;;10273027;28;20035;-86
2022/03/13 03:54:35;;;;;;;156.57;56.63;;;-2.50;70.30;;;;;;10283381;28;20093;-86
2022/03/13 03:59:36;;;;;;;156.77;59.93;;;-2.60;70.50;;;;;;10284365;28;20038;-87
2022/03/13 04:04:36;;;;;;;176.30;66.20;;;-2.80;71.70;;;;;;10273312;28;20129;-87
2022/03/13 04:09:37;;;;;;;135.17;54.40;;;-2.90;72.70;;;;;;10290565;28;20030;-87
2022/03/13 04:14:38;;;;;;;153.00;57.17;;;-3.00;72.50;;;;;;10290131;28;20050;-86
2022/03/13 04:19:39;;;;;;;146.27;60.67;;;-2.90;72.50;;;;;;10265012;28;20047;-87
2022/03/13 04:24:39;;;;;;;152.67;58.23;;;-3.00;73.00;;;;;;10252256;28;20054;-86
2022/03/13 04:29:41;;;;;;;154.50;61.87;;;-3.00;74.00;;;;;;10258285;28;20066;-87
2022/03/13 04:34:42;;;;;;;156.67;60.20;;;-3.10;74.40;;;;;;10281900;28;20066;-85
2022/03/13 04:39:42;;;;;;;154.17;59.00;;;-3.20;75.50;;;;;;10282065;28;20499;-85
2022/03/13 04:44:44;;;;;;;148.50;58.20;;;-3.20;76.20;;;;;;10289332;28;20094;-85
2022/03/13 04:49:45;;;;;;;130.77;51.93;;;-3.30;76.70;;;;;;10281596;28;20046;-85
2022/03/13 04:54:45;;;;;;;135.03;52.93;;;-3.30;76.20;;;;;;10289287;28;20117;-85
2022/03/13 04:59:46;;;;;;;140.00;52.67;;;-3.30;76.90;;;;;;10287747;28;20450;-85
2022/03/13 05:04:47;;;;;;;124.83;49.77;;;-3.40;77.00;;;;;;10279873;28;20023;-86
2022/03/13 05:09:48;;;;;;;105.60;41.60;;;-3.40;77.00;;;;;;10288416;28;20030;-85
2022/03/13 05:14:48;;;;;;;103.57;40.30;;;-3.40;76.70;;;;;;10288097;28;20093;-83
2022/03/13 05:19:49;;;;;;;104.10;40.37;;;-3.30;76.60;;;;;;10281066;28;20043;-83
2022/03/13 05:24:50;;;;;;;104.47;39.73;;;-3.30;76.50;;;;;;10285170;28;20134;-86
2022/03/13 05:29:50;;;;;;;98.10;37.20;;;-3.30;76.90;;;;;;10262617;28;20030;-86
2022/03/13 05:34:52;;;;;;;96.30;38.43;;;-3.30;76.80;;;;;;10269868;28;20074;-86
2022/03/13 05:39:52;;;;;;;89.47;36.37;;;-3.30;77.10;;;;;;10251199;28;20027;-86
2022/03/13 05:44:53;;;;;;;101.63;40.73;;;-3.20;77.70;;;;;;10246451;28;20031;-86
2022/03/13 05:49:54;;;;;;;106.67;44.77;;;-3.20;77.40;;;;;;10261494;28;20045;-85
2022/03/13 05:54:55;;;;;;;122.13;48.23;;;-3.30;77.80;;;;;;10274955;28;20053;-86
2022/03/13 05:59:55;;;;;;;138.07;53.17;;;-3.30;79.00;;;;;;10229925;29;20027;-85
2022/03/13 06:04:56;;;;;;;166.73;65.60;;;-3.30;78.80;;;;;;10269084;28;20057;-86
2022/03/13 06:10:03;;;;;;;182.80;72.80;;;-3.30;78.90;;;;;;10287112;28;20039;-84
2022/03/13 06:15:06;;;;;;;161.47;66.07;;;-3.30;78.80;;;;;;10286716;28;20050;-86
2022/03/13 06:20:10;;;;;;;158.67;65.00;;;-3.10;78.60;;;;;;10286662;28;20101;-85
2022/03/13 06:25:12;;;;;;;112.13;44.20;;;-2.90;78.80;;;;;;10285759;28;20042;-85
2022/03/13 06:30:15;;;;;;;207.50;81.10;;;-2.70;79.10;;;;;;10269189;28;20504;-86
2022/03/13 06:35:18;;;;;;;205.73;85.30;;;-2.40;79.70;;;;;;10285791;28;20035;-85
2022/03/13 06:40:22;;;;;;;226.37;90.43;;;-2.20;80.40;;;;;;10265419;28;20035;-86
2022/03/13 06:45:23;;;;;;;200.67;84.50;;;-2.00;80.50;;;;;;10285058;28;20054;-85
2022/03/13 06:50:24;;;;;;;177.37;74.57;;;-1.80;80.60;;;;;;10286209;28;20122;-86
2022/03/13 06:55:25;;;;;;;152.63;66.17;;;-1.50;81.80;;;;;;10272286;28;20100;-86
2022/03/13 07:00:26;;;;;;;216.73;80.20;;;-1.20;82.20;;;;;;10282442;28;20037;-85
2022/03/13 07:05:30;;;;;;;143.37;59.70;;;-1.00;82.10;;;;;;10276043;28;20513;-85
2022/03/13 07:10:30;;;;;;;139.60;56.10;;;-0.60;80.80;;;;;;10275288;28;20059;-87
2022/03/13 07:15:31;;;;;;;164.93;66.87;;;-0.20;78.10;;;;;;10258159;28;20046;-85
2022/03/13 07:20:32;;;;;;;120.43;50.93;;;0.10;78.00;;;;;;10273828;28;20027;-87
2022/03/13 07:25:33;;;;;;;143.73;61.00;;;0.40;76.60;;;;;;10267788;28;20029;-85
2022/03/13 07:30:34;;;;;;;162.60;67.27;;;0.80;76.30;;;;;;10270811;28;20032;-86
2022/03/13 07:35:35;;;;;;;97.87;43.17;;;1.20;76.60;;;;;;10287640;28;20030;-85
2022/03/13 07:40:36;;;;;;;88.87;39.83;;;1.60;74.50;;;;;;10274279;28;20033;-85
2022/03/13 07:45:36;;;;;;;84.13;37.10;;;1.90;73.70;;;;;;10279733;28;20035;-85
2022/03/13 07:50:37;;;;;;;83.60;37.53;;;2.30;73.50;;;;;;10251205;28;20515;-85
2022/03/13 07:55:41;;;;;;;86.27;31.50;;;2.60;71.70;;;;;;10267262;28;20046;-84
2022/03/13 08:00:43;;;;;;;101.63;40.47;;;2.90;69.00;;;;;;10273277;28;20118;-84
2022/03/13 08:05:44;;;;;;;83.57;38.23;;;3.30;67.30;;;;;;10257035;28;20026;-85
2022/03/13 08:10:44;;;;;;;76.70;34.53;;;3.60;66.40;;;;;;10304107;28;20050;-84
2022/03/13 08:15:45;;;;;;;75.40;34.50;;;4.10;67.20;;;;;;10295546;28;20050;-85
2022/03/13 08:20:46;;;;;;;84.30;36.83;;;4.60;66.30;;;;;;10279989;28;20379;-85
2022/03/13 08:25:46;;;;;;;93.43;45.70;;;4.90;64.10;;;;;;10271594;28;20522;-86
2022/03/13 08:30:47;;;;;;;85.33;44.40;;;5.40;63.70;;;;;;10265676;28;20020;-84
2022/03/13 08:35:49;;;;;;;60.43;27.63;;;5.80;62.80;;;;;;10275857;28;20053;-84
2022/03/13 08:40:52;;;;;;;74.77;39.33;;;6.00;60.90;;;;;;10275474;28;20026;-84
2022/03/13 08:45:53;;;;;;;77.60;38.07;;;6.30;59.60;;;;;;10288915;28;20113;-84
2022/03/13 08:50:54;;;;;;;72.53;33.10;;;6.60;59.10;;;;;;10282191;28;20022;-82
2022/03/13 08:55:54;;;;;;;68.07;30.83;;;7.00;58.70;;;;;;10287974;28;20069;-85
2022/03/13 09:00:56;;;;;;;47.40;23.17;;;7.30;57.00;;;;;;10287553;28;20426;-83
2022/03/13 09:05:57;;;;;;;80.30;33.50;;;7.60;53.90;;;;;;10288099;28;20026;-85
2022/03/13 09:10:58;;;;;;;73.73;30.67;;;8.00;54.20;;;;;;10269230;28;20062;-85
2022/03/13 09:15:59;;;;;;;103.40;39.03;;;8.10;52.80;;;;;;10286690;28;20035;-84
2022/03/13 09:21:00;;;;;;;46.73;21.77;;;8.60;53.80;;;;;;10281064;28;20023;-84
2022/03/13 09:26:01;;;;;;;28.90;14.70;;;8.90;49.90;;;;;;10234363;28;20030;-85
2022/03/13 09:31:01;;;;;;;45.83;18.63;;;8.90;48.40;;;;;;10276485;28;20027;-84
2022/03/13 09:36:02;;;;;;;25.73;12.10;;;8.90;49.00;;;;;;10287531;28;20042;-84
2022/03/13 09:41:03;;;;;;;48.63;20.07;;;9.00;48.30;;;;;;10279660;28;20041;-85
2022/03/13 09:46:04;;;;;;;93.23;33.90;;;9.00;47.80;;;;;;10264239;28;20030;-83
2022/03/13 09:51:07;;;;;;;91.90;40.03;;;9.10;47.30;;;;;;10259558;28;20113;-85
2022/03/13 09:56:07;;;;;;;132.03;50.57;;;9.40;48.80;;;;;;10286865;28;20046;-85
2022/03/13 10:01:08;;;;;;;121.93;49.23;;;9.50;48.40;;;;;;10279273;28;20031;-84
2022/03/13 10:06:09;;;;;;;131.43;50.97;;;9.40;47.50;;;;;;10261650;28;20035;-85
2022/03/13 10:11:10;;;;;;;88.13;30.87;;;9.40;46.80;;;;;;10257349;28;20059;-85
2022/03/13 10:16:19;;;;;;;44.40;16.87;;;9.30;45.00;;;;;;10267797;28;20395;-84
2022/03/13 10:21:20;;;;;;;32.50;15.00;;;9.60;46.20;;;;;;10267898;28;20038;-85
2022/03/13 10:26:30;;;;;;;36.30;16.57;;;10.00;44.30;;;;;;10262206;28;20035;-85
2022/03/13 10:31:31;;;;;;;31.70;16.23;;;10.20;41.80;;;;;;10270512;28;20814;-84
2022/03/13 10:36:33;;;;;;;36.80;17.97;;;10.30;42.00;;;;;;10280952;28;20514;-85
2022/03/13 10:41:44;;;;;;;93.13;37.27;;;10.50;43.10;;;;;;10257614;28;20055;-86
2022/03/13 10:46:53;;;;;;;117.57;42.80;;;10.70;41.90;;;;;;10288628;28;20586;-85
2022/03/13 10:51:56;;;;;;;64.23;26.13;;;11.00;44.90;;;;;;10291983;28;20031;-85
2022/03/13 10:57:07;;;;;;;63.88;28.00;;;11.30;44.60;;;;;;10289523;28;20105;-85
2022/03/13 11:02:23;;;;;;;48.05;20.70;;;11.40;42.80;;;;;;10292028;28;20025;-85
2022/03/13 11:07:27;;;;;;;30.77;13.82;;;11.20;41.80;;;;;;10292818;28;20035;-86
2022/03/13 11:12:28;;;;;;;25.63;13.48;;;11.40;41.00;;;;;;10293147;28;20050;-85
2022/03/13 11:17:34;;;;;;;53.87;22.13;;;11.00;40.10;;;;;;10292848;28;20430;-84
2022/03/13 11:22:35;;;;;;;64.05;24.17;;;11.20;43.80;;;;;;10286383;28;20433;-83
2022/03/13 11:27:39;;;;;;;51.53;22.77;;;11.60;43.20;;;;;;10256819;28;20031;-85
2022/03/13 11:32:44;;;;;;;24.90;10.25;;;11.70;40.70;;;;;;10290480;28;20029;-86
2022/03/13 11:37:54;;;;;;;35.87;14.13;;;11.80;38.70;;;;;;10290841;28;20031;-87
2022/03/13 11:43:04;;;;;;;260.38;83.47;;;11.90;38.40;;;;;;10291361;28;20054;-84
2022/03/13 11:48:05;;;;;;;36.05;16.67;;;12.00;38.90;;;;;;10290617;28;20031;-86
2022/03/13 11:53:23;;;;;;;25.80;10.50;;;12.00;38.30;;;;;;10321609;28;20482;-86
2022/03/13 11:58:41;;;;;;;68.57;24.02;;;11.80;36.10;;;;;;10284468;28;20403;-83
2022/03/13 12:04:04;;;;;;;49.78;21.55;;;12.20;40.20;;;;;;10272506;28;20473;-84
2022/03/13 12:09:19;;;;;;;163.52;91.93;;;12.40;39.00;;;;;;10290770;28;20034;-84
2022/03/13 12:14:20;;;;;;;673.78;410.02;;;12.50;35.00;;;;;;10290011;28;20070;-83
2022/03/13 12:19:20;;;;;;;683.53;420.73;;;12.40;37.20;;;;;;10282145;28;20031;-84
2022/03/13 12:24:21;;;;;;;441.40;255.38;;;12.40;35.30;;;;;;10282871;28;20118;-84
2022/03/13 12:29:23;;;;;;;20.92;11.85;;;12.50;36.20;;;;;;10288159;28;20069;-82
2022/03/13 12:34:24;;;;;;;85.05;55.70;;;12.50;31.60;;;;;;10254350;28;20061;-83
2022/03/13 12:39:25;;;;;;;18.40;11.45;;;12.30;33.90;;;;;;10271024;28;20373;-85
2022/03/13 12:56:29;;;;;;;17.33;10.98;;;12.40;31.50;;;;;;10263548;28;20043;-83
2022/03/13 13:07:32;;;;;;;31.40;12.32;;;12.60;32.40;;;;;;10281202;28;20483;-83
2022/03/13 13:13:37;;;;;;;43.22;18.20;;;12.80;33.20;;;;;;10279919;28;20078;-84
2022/03/13 13:24:37;;;;;;;20.83;8.48;;;12.90;29.50;;;;;;11993155;23;20131;-84
2022/03/13 13:29:40;;;;;;;51.00;18.88;;;12.80;32.90;;;;;;10240695;29;20035;-85
2022/03/13 13:34:41;;;;;;;26.58;9.82;;;12.80;33.90;;;;;;10243818;29;20039;-88
2022/03/13 13:46:19;;;;;;;16.42;7.78;;;12.90;32.00;;;;;;10235153;29;20535;-86
2022/03/13 14:13:38;;;;;;;16.77;8.27;;;11.70;32.10;;;;;;10843687;23;20035;-86
2022/03/13 14:18:39;;;;;;;15.10;7.37;;;11.40;33.50;;;;;;10191281;29;20024;-85
2022/03/13 14:23:40;;;;;;;18.45;9.00;;;11.30;33.10;;;;;;10206015;29;20032;-85
2022/03/13 14:28:41;;;;;;;21.17;10.00;;;11.20;33.60;;;;;;10185851;29;20163;-86
2022/03/13 14:33:42;;;;;;;39.45;15.80;;;11.10;34.40;;;;;;10209761;29;20427;-85
2022/03/13 14:39:05;;;;;;;15.45;7.78;;;11.10;34.70;;;;;;10209269;29;20036;-85
2022/03/13 14:56:07;;;;;;;35.00;16.05;;;10.60;34.80;;;;;;10213462;29;20051;-86
2022/03/13 15:01:11;;;;;;;18.10;9.33;;;10.50;35.30;;;;;;10209505;29;20082;-86
2022/03/13 15:06:14;;;;;;;34.40;15.73;;;10.40;35.20;;;;;;10206824;29;20499;-85
2022/03/13 15:11:15;;;;;;;18.10;9.77;;;10.30;36.60;;;;;;10205486;29;20031;-86
2022/03/13 15:16:16;;;;;;;20.90;10.00;;;10.30;35.60;;;;;;10237215;29;20063;-84
2022/03/13 15:21:17;;;;;;;20.30;10.30;;;10.10;36.90;;;;;;10248965;28;20066;-84
2022/03/13 15:26:17;;;;;;;19.60;10.17;;;10.00;37.00;;;;;;10240244;29;20107;-84
2022/03/13 15:31:18;;;;;;;30.67;13.00;;;9.80;37.00;;;;;;10226850;29;20031;-84
2022/03/13 15:36:19;;;;;;;23.20;11.53;;;9.60;38.10;;;;;;10243096;29;20489;-84
2022/03/13 15:41:20;;;;;;;20.77;10.50;;;9.50;38.10;;;;;;10244995;28;20031;-84
2022/03/13 15:46:21;;;;;;;28.33;12.87;;;9.30;38.70;;;;;;10242036;28;20044;-84
2022/03/13 15:51:22;;;;;;;30.17;15.07;;;9.20;38.60;;;;;;10222624;29;20484;-84
2022/03/13 15:56:23;;;;;;;76.70;36.13;;;9.00;39.00;;;;;;10251307;29;20515;-84
2022/03/13 16:01:28;;;;;;;97.07;47.37;;;8.90;39.50;;;;;;10249969;29;20055;-85
2022/03/13 16:06:28;;;;;;;104.60;49.97;;;8.70;39.80;;;;;;10250998;28;20078;-85
2022/03/13 16:11:29;;;;;;;196.23;93.53;;;8.50;40.20;;;;;;10239898;29;20043;-84
2022/03/13 16:16:30;;;;;;;51.43;25.83;;;8.40;40.30;;;;;;10242875;28;20148;-85
2022/03/13 16:21:31;;;;;;;41.73;19.50;;;8.20;41.50;;;;;;10248661;28;20081;-85
2022/03/13 16:26:32;;;;;;;35.63;18.33;;;8.00;41.40;;;;;;10247124;29;20134;-84
2022/03/13 16:31:33;;;;;;;33.47;17.33;;;7.80;41.80;;;;;;10250805;28;20039;-84
2022/03/13 16:36:34;;;;;;;42.13;21.83;;;7.60;42.30;;;;;;10246098;29;20039;-84
2022/03/13 16:41:34;;;;;;;53.47;26.30;;;7.30;42.60;;;;;;10240241;29;20061;-86
2022/03/13 16:46:36;;;;;;;69.40;30.67;;;7.10;43.10;;;;;;10245897;29;20484;-84
2022/03/13 16:51:36;;;;;;;61.10;27.27;;;6.90;43.60;;;;;;10217865;29;20078;-84
2022/03/13 16:56:39;;;;;;;44.40;21.33;;;6.70;44.10;;;;;;10256587;28;20114;-84
2022/03/13 17:01:42;;;;;;;39.43;18.50;;;6.40;44.50;;;;;;10255062;28;20023;-84
2022/03/13 17:06:46;;;;;;;22.57;11.90;;;6.20;45.50;;;;;;10258287;28;20125;-85
2022/03/13 17:11:46;;;;;;;39.90;17.67;;;5.80;45.70;;;;;;10267769;28;20031;-85
2022/03/13 17:16:47;;;;;;;36.67;17.13;;;5.40;47.30;;;;;;10245032;28;20048;-84
2022/03/13 17:21:52;;;;;;;34.73;16.00;;;5.10;47.20;;;;;;10217694;28;20067;-84
2022/03/13 17:26:53;;;;;;;42.57;18.70;;;5.20;47.30;;;;;;10228045;28;20042;-84
2022/03/13 17:31:54;;;;;;;36.83;17.13;;;5.20;47.40;;;;;;10257084;28;20042;-84
2022/03/13 17:36:55;;;;;;;38.07;17.57;;;5.30;47.80;;;;;;10265787;28;20492;-85
2022/03/13 17:41:56;;;;;;;31.60;14.77;;;5.20;47.70;;;;;;10245863;28;20051;-85
2022/03/13 17:46:57;;;;;;;36.50;17.93;;;5.20;48.10;;;;;;10244407;29;20087;-85
2022/03/13 17:51:57;;;;;;;40.27;18.27;;;5.20;48.30;;;;;;10242865;29;20046;-84
2022/03/13 17:56:59;;;;;;;40.13;18.33;;;5.20;48.80;;;;;;10236236;29;20863;-84
2022/03/13 18:02:00;;;;;;;49.77;24.47;;;5.10;49.10;;;;;;10221435;29;20047;-85
2022/03/13 18:07:00;;;;;;;52.53;23.97;;;4.90;49.30;;;;;;10214536;28;20527;-85
2022/03/13 18:12:01;;;;;;;58.63;24.33;;;4.80;49.60;;;;;;10210802;29;20456;-84
2022/03/13 18:17:03;;;;;;;49.17;22.97;;;4.80;49.70;;;;;;10182471;29;1146252;-85
2022/03/13 18:22:04;;;;;;;55.33;23.07;;;4.70;50.10;;;;;;10227754;28;20062;-84
2022/03/13 18:27:10;;;;;;;50.83;22.57;;;4.60;50.20;;;;;;10244749;28;20138;-83
2022/03/13 18:32:10;;;;;;;49.83;21.23;;;4.50;50.90;;;;;;10233512;29;20027;-87
2022/03/13 18:37:14;;;;;;;50.30;21.60;;;4.40;50.90;;;;;;10243816;29;20051;-85
2022/03/13 18:42:14;;;;;;;54.70;23.37;;;4.30;51.20;;;;;;10214631;29;20027;-85
2022/03/13 18:47:15;;;;;;;54.20;24.23;;;4.20;51.60;;;;;;10230960;29;20031;-84
2022/03/13 18:52:16;;;;;;;46.27;22.00;;;4.10;52.00;;;;;;10237675;28;20034;-83
2022/03/13 18:57:17;;;;;;;67.30;29.97;;;4.20;52.20;;;;;;10233002;28;20472;-85
2022/03/13 19:02:18;;;;;;;46.83;22.83;;;4.10;52.80;;;;;;10216496;29;20400;-84
2022/03/13 19:07:20;;;;;;;43.87;21.03;;;4.00;53.10;;;;;;10236550;29;20046;-84
2022/03/13 19:12:21;;;;;;;43.77;20.27;;;4.00;53.40;;;;;;10250982;28;20027;-83
2022/03/13 19:17:23;;;;;;;48.57;20.80;;;3.90;54.10;;;;;;10244982;29;20051;-85
2022/03/13 19:22:29;;;;;;;46.30;21.53;;;3.80;54.90;;;;;;10250629;28;20031;-83
2022/03/13 19:27:32;;;;;;;42.20;20.13;;;3.70;55.50;;;;;;10249878;29;20727;-84
2022/03/13 19:32:34;;;;;;;52.00;22.60;;;3.70;56.10;;;;;;10245327;29;20081;-84
2022/03/13 19:37:35;;;;;;;59.30;25.27;;;3.60;56.60;;;;;;10239429;28;20416;-84
2022/03/13 19:42:36;;;;;;;70.67;28.57;;;3.40;56.70;;;;;;10237334;29;20107;-83
2022/03/13 19:47:37;;;;;;;65.83;29.43;;;3.20;57.40;;;;;;10251295;28;20143;-84
2022/03/13 19:52:38;;;;;;;62.07;25.97;;;3.00;58.50;;;;;;10249619;28;20067;-85
2022/03/13 19:57:39;;;;;;;57.60;26.53;;;2.90;58.80;;;;;;10250568;28;20268;-84
2022/03/13 20:02:41;;;;;;;127.07;52.37;;;2.70;60.70;;;;;;10251275;29;20113;-85
2022/03/13 20:07:43;;;;;;;84.63;34.93;;;2.70;60.50;;;;;;10244461;28;20023;-85
2022/03/13 20:12:43;;;;;;;112.50;46.87;;;2.70;61.40;;;;;;10250627;28;20042;-84
2022/03/13 20:17:44;;;;;;;113.20;46.63;;;2.60;61.10;;;;;;10248052;28;20063;-85
2022/03/13 20:22:45;;;;;;;122.77;50.73;;;2.60;61.30;;;;;;10246228;29;20035;-85
2022/03/13 20:27:46;;;;;;;157.83;62.17;;;2.70;62.10;;;;;;10250764;28;20027;-82
2022/03/13 20:32:47;;;;;;;103.30;39.47;;;2.90;62.50;;;;;;10247255;29;20554;-83
2022/03/13 20:37:48;;;;;;;80.67;36.03;;;3.00;62.60;;;;;;10217775;29;20024;-84
2022/03/13 20:42:51;;;;;;;79.60;33.40;;;3.00;62.70;;;;;;10207722;29;20032;-82
2022/03/13 20:47:52;;;;;;;119.70;44.00;;;3.20;62.50;;;;;;10210990;29;20387;-86
2022/03/13 20:52:54;;;;;;;169.80;65.23;;;3.10;62.30;;;;;;10245562;29;20038;-83
2022/03/13 20:57:54;;;;;;;166.43;62.67;;;3.00;62.60;;;;;;10241022;29;20114;-84
2022/03/13 21:02:55;;;;;;;102.30;38.73;;;2.90;64.00;;;;;;10243946;28;20134;-83
2022/03/13 21:07:56;;;;;;;110.27;44.67;;;2.90;63.70;;;;;;10230404;28;20035;-84
2022/03/13 21:12:58;;;;;;;143.77;54.73;;;2.80;63.90;;;;;;10249067;28;20094;-82
2022/03/13 21:17:59;;;;;;;124.83;45.07;;;2.80;65.20;;;;;;10246604;28;20059;-82
2022/03/13 21:22:59;;;;;;;110.27;43.53;;;2.70;65.10;;;;;;10245229;29;20035;-83
2022/03/13 21:28:01;;;;;;;152.40;56.40;;;2.70;65.70;;;;;;10247956;28;20039;-85
2022/03/13 21:33:02;;;;;;;128.07;48.87;;;2.60;66.40;;;;;;10246741;28;20086;-83
2022/03/13 21:38:03;;;;;;;112.23;42.13;;;2.50;66.60;;;;;;10241667;28;20391;-84
2022/03/13 21:43:05;;;;;;;103.50;40.57;;;2.60;67.30;;;;;;10248073;29;20094;-83
2022/03/13 21:48:05;;;;;;;99.77;40.23;;;2.60;67.60;;;;;;10247478;28;20151;-84
2022/03/13 21:53:06;;;;;;;97.00;39.07;;;2.60;67.50;;;;;;10247556;29;20093;-83
2022/03/13 21:58:07;;;;;;;92.87;39.23;;;2.60;68.30;;;;;;10247023;28;20035;-84
2022/03/13 22:03:08;;;;;;;70.67;29.40;;;2.70;68.00;;;;;;10246871;29;20727;-83
2022/03/13 22:08:11;;;;;;;73.90;31.13;;;2.70;69.30;;;;;;10246329;28;20391;-85
2022/03/13 22:13:12;;;;;;;62.60;27.73;;;2.80;69.70;;;;;;10246815;29;20032;-83
2022/03/13 22:18:13;;;;;;;72.83;29.03;;;2.70;69.40;;;;;;10241034;29;20051;-83
2022/03/13 22:23:14;;;;;;;66.27;29.80;;;2.50;70.60;;;;;;10238265;29;20023;-85
2022/03/13 22:28:14;;;;;;;65.03;28.57;;;2.50;71.50;;;;;;10248572;28;20046;-85
2022/03/13 22:33:15;;;;;;;63.33;26.10;;;2.40;71.30;;;;;;10254004;29;20039;-83
2022/03/13 22:38:16;;;;;;;65.83;25.73;;;2.20;71.20;;;;;;10247330;29;20077;-84
2022/03/13 22:43:18;;;;;;;71.53;28.03;;;2.00;72.20;;;;;;10248556;29;20469;-83
2022/03/13 22:48:19;;;;;;;59.57;26.17;;;2.00;73.00;;;;;;10247181;28;20035;-84
2022/03/13 22:53:20;;;;;;;57.70;23.10;;;1.90;73.50;;;;;;10253145;28;20035;-85
2022/03/13 22:58:26;;;;;;;55.13;23.07;;;1.80;73.30;;;;;;10252152;29;20063;-83
2022/03/13 23:03:27;;;;;;;39.88;19.33;;;1.70;73.40;;;;;;10253240;28;20094;-84
2022/03/13 23:08:29;;;;;;;45.23;20.10;;;1.60;75.00;;;;;;10249782;29;20082;-84
2022/03/13 23:13:32;;;;;;;55.90;25.37;;;1.40;73.80;;;;;;10247650;29;20043;-84
2022/03/13 23:18:33;;;;;;;62.57;25.17;;;1.30;74.10;;;;;;10252806;29;20037;-84
2022/03/13 23:23:34;;;;;;;54.93;23.53;;;1.10;75.40;;;;;;10249988;29;20045;-85
2022/03/13 23:28:35;;;;;;;51.97;22.03;;;1.00;75.00;;;;;;10244802;29;20503;-84
2022/03/13 23:33:36;;;;;;;44.83;20.17;;;1.00;76.00;;;;;;10250604;28;20031;-83
2022/03/13 23:38:40;;;;;;;56.30;22.70;;;0.90;76.50;;;;;;10252032;28;20094;-84
2022/03/13 23:43:43;;;;;;;55.73;25.33;;;0.80;77.00;;;;;;10252466;28;20482;-84
2022/03/13 23:48:43;;;;;;;54.00;22.67;;;0.70;76.80;;;;;;10250668;28;20039;-86
2022/03/13 23:53:44;;;;;;;60.47;24.90;;;0.60;77.20;;;;;;10251447;28;20461;-84
2022/03/13 23:58:48;;;;;;;48.93;22.97;;;0.50;78.10;;;;;;10251295;29;20031;-84
